Time;durP1;ratioP1;P1;durP2;ratioP2;P2;SDS_P1;SDS_P2;PMS_P1;PMS_P2;Temp;Humidity;BMP_temperature;BMP_pressure;BME280_temperature;BME280_humidity;BME280_pressure;Samples;Min_cycle;Max_cycle;Signal;HPM_P1;HPM_P2
2022/04/10 00:00:58;;;;;;;2.30;1.47;;;10.70;31.90;;;;;;5071710;28;20025;-46
2022/04/10 00:03:23;;;;;;;1.37;1.27;;;10.50;32.80;;;;;;5067836;28;20126;-45
2022/04/10 00:05:50;;;;;;;3.87;1.33;;;10.30;34.40;;;;;;5051668;28;20079;-47
2022/04/10 00:08:16;;;;;;;1.90;1.30;;;10.10;36.00;;;;;;5051205;28;20036;-45
2022/04/10 00:10:42;;;;;;;2.13;0.93;;;10.00;36.00;;;;;;5071912;28;20025;-45
2022/04/10 00:13:08;;;;;;;1.90;1.00;;;9.90;37.10;;;;;;5071108;28;20044;-46
2022/04/10 00:15:34;;;;;;;2.10;1.00;;;10.00;36.30;;;;;;5033488;28;20120;-44
2022/04/10 00:18:00;;;;;;;2.17;1.00;;;9.80;36.40;;;;;;5051662;28;20021;-47
2022/04/10 00:20:25;;;;;;;1.47;0.70;;;9.90;34.90;;;;;;5050733;28;20258;-46
2022/04/10 00:22:51;;;;;;;2.50;0.67;;;9.90;34.30;;;;;;5069381;28;20024;-45
2022/04/10 00:25:18;;;;;;;2.03;0.90;;;9.80;35.40;;;;;;5069471;28;20115;-44
2022/04/10 00:27:44;;;;;;;3.77;1.00;;;9.90;34.50;;;;;;5071600;28;20360;-45
2022/04/10 00:30:15;;;;;;;2.90;0.93;;;9.70;35.20;;;;;;5050678;28;20024;-45
2022/04/10 00:32:41;;;;;;;3.63;1.10;;;9.70;35.10;;;;;;5071642;28;20033;-45
2022/04/10 00:35:08;;;;;;;3.40;1.63;;;9.80;34.80;;;;;;5051610;28;20043;-45
2022/04/10 00:37:35;;;;;;;3.37;1.00;;;9.80;34.40;;;;;;5074688;28;20115;-45
2022/04/10 00:40:01;;;;;;;1.23;0.77;;;9.70;34.60;;;;;;5060523;28;20028;-45
2022/04/10 00:42:45;;;;;;;1.87;0.93;;;9.90;34.40;;;;;;5055026;28;20090;-47
2022/04/10 00:45:11;;;;;;;1.27;1.17;;;9.90;34.00;;;;;;5066467;28;20021;-46
2022/04/10 00:47:37;;;;;;;5.50;1.07;;;9.80;33.60;;;;;;5060784;28;20161;-44
2022/04/10 00:50:05;;;;;;;4.93;1.13;;;9.90;33.20;;;;;;5071163;28;20029;-45
2022/04/10 00:52:31;;;;;;;2.67;0.90;;;9.90;33.30;;;;;;5075037;28;20067;-45
2022/04/10 00:54:58;;;;;;;2.60;1.00;;;9.90;33.50;;;;;;5061782;28;20033;-45
2022/04/10 00:57:24;;;;;;;3.40;1.20;;;9.70;33.90;;;;;;5055212;28;20098;-45
2022/04/10 00:59:50;;;;;;;2.83;1.43;;;10.00;33.70;;;;;;5054236;28;20032;-50
2022/04/10 01:02:16;;;;;;;2.60;1.17;;;9.90;33.10;;;;;;5035576;28;20056;-44
2022/04/10 01:04:42;;;;;;;1.03;0.93;;;9.90;33.30;;;;;;5043911;28;20463;-46
2022/04/10 01:07:11;;;;;;;1.60;1.20;;;9.90;34.10;;;;;;5036750;28;20029;-44
2022/04/10 01:09:38;;;;;;;2.73;1.20;;;9.70;34.00;;;;;;5043647;28;20025;-44
2022/04/10 01:12:05;;;;;;;3.27;1.20;;;9.80;34.70;;;;;;5074186;28;20135;-44
2022/04/10 01:14:31;;;;;;;1.07;0.97;;;9.80;34.80;;;;;;5065463;28;20048;-47
2022/04/10 01:16:57;;;;;;;2.73;1.00;;;9.50;34.90;;;;;;5053342;28;20093;-44
2022/04/10 01:19:23;;;;;;;1.80;1.47;;;9.50;36.00;;;;;;5053079;28;20028;-45
2022/04/10 01:21:51;;;;;;;1.83;1.53;;;9.60;35.50;;;;;;5053926;28;20490;-46
2022/04/10 01:24:17;;;;;;;1.10;1.10;;;9.70;35.10;;;;;;5051898;28;20436;-48
2022/04/10 01:26:43;;;;;;;1.93;1.67;;;9.50;35.90;;;;;;5053723;28;20061;-48
2022/04/10 01:29:14;;;;;;;2.40;1.10;;;9.80;34.00;;;;;;5053152;28;20025;-46
2022/04/10 01:31:45;;;;;;;2.07;1.23;;;9.80;33.40;;;;;;5033899;28;20064;-48
2022/04/10 01:34:15;;;;;;;3.93;1.20;;;9.80;33.50;;;;;;5033307;28;20068;-48
2022/04/10 01:36:42;;;;;;;1.93;1.63;;;9.70;34.30;;;;;;5033565;28;20399;-46
2022/04/10 01:39:10;;;;;;;3.53;1.33;;;9.70;34.40;;;;;;5033416;28;20027;-47
2022/04/10 01:41:36;;;;;;;2.80;1.37;;;9.90;33.60;;;;;;5052569;28;20036;-45
2022/04/10 01:44:04;;;;;;;2.63;1.70;;;9.90;33.20;;;;;;5054925;28;20025;-45
2022/04/10 01:46:30;;;;;;;2.20;1.53;;;9.90;33.70;;;;;;5053158;28;20053;-45
2022/04/10 01:48:57;;;;;;;2.63;1.50;;;9.70;35.10;;;;;;5052142;28;20087;-44
2022/04/10 01:51:23;;;;;;;4.80;1.50;;;9.60;35.20;;;;;;5065755;28;20056;-45
2022/04/10 01:53:51;;;;;;;2.00;1.50;;;9.70;34.50;;;;;;5071565;28;20035;-45
2022/04/10 01:56:17;;;;;;;3.43;1.50;;;9.70;34.10;;;;;;5055261;28;20132;-47
2022/04/10 01:58:44;;;;;;;3.10;1.80;;;9.80;33.40;;;;;;5053001;28;20044;-45
2022/04/10 02:01:11;;;;;;;1.40;1.30;;;9.90;32.90;;;;;;5033179;28;20039;-46
2022/04/10 02:03:38;;;;;;;5.43;1.60;;;9.80;32.90;;;;;;5050483;28;20043;-45
2022/04/10 02:06:08;;;;;;;2.30;1.60;;;9.80;33.20;;;;;;5050899;28;20471;-46
2022/04/10 02:08:37;;;;;;;1.90;1.50;;;9.90;33.20;;;;;;5051998;28;20363;-45
2022/04/10 02:11:12;;;;;;;2.70;1.50;;;9.90;33.40;;;;;;5046359;28;20575;-47
2022/04/10 02:13:39;;;;;;;4.43;1.37;;;9.80;33.70;;;;;;5040145;28;20047;-45
2022/04/10 02:16:08;;;;;;;3.07;1.43;;;9.80;33.70;;;;;;5049933;28;20041;-45
2022/04/10 02:18:34;;;;;;;2.07;1.30;;;9.90;33.60;;;;;;5045145;28;20094;-44
2022/04/10 02:20:59;;;;;;;2.30;1.47;;;9.90;32.70;;;;;;5043139;28;20025;-46
2022/04/10 02:24:15;;;;;;;3.57;1.80;;;10.00;32.40;;;;;;5047169;28;20040;-46
2022/04/10 02:26:42;;;;;;;4.55;1.42;;;10.00;33.10;;;;;;5045024;28;20040;-46
2022/04/10 02:29:08;;;;;;;3.40;1.30;;;10.10;32.20;;;;;;5039929;28;20022;-47
2022/04/10 02:31:33;;;;;;;3.37;1.50;;;10.00;32.00;;;;;;5050187;28;20032;-47
2022/04/10 02:34:00;;;;;;;2.30;1.47;;;10.10;32.10;;;;;;5036230;28;20458;-45
2022/04/10 02:36:26;;;;;;;2.23;1.83;;;10.00;32.00;;;;;;5064664;28;20064;-45
2022/04/10 02:38:51;;;;;;;4.73;1.80;;;9.90;32.30;;;;;;5073224;28;20021;-44
2022/04/10 02:41:17;;;;;;;2.67;1.37;;;10.00;32.40;;;;;;5056528;28;20500;-44
2022/04/10 02:43:42;;;;;;;2.90;1.40;;;10.00;32.50;;;;;;5056181;28;20020;-44
2022/04/10 02:46:08;;;;;;;5.63;1.90;;;9.90;32.80;;;;;;5068910;28;20378;-45
2022/04/10 02:48:34;;;;;;;3.83;2.13;;;10.00;32.70;;;;;;5058412;28;20094;-44
2022/04/10 02:51:01;;;;;;;2.17;1.97;;;10.00;33.00;;;;;;5051738;28;20072;-45
2022/04/10 02:53:27;;;;;;;2.93;1.63;;;9.90;32.70;;;;;;5052703;28;20109;-45
2022/04/10 02:55:52;;;;;;;2.73;1.70;;;9.90;32.50;;;;;;5048883;28;20206;-44
2022/04/10 02:58:18;;;;;;;4.00;1.70;;;9.80;32.90;;;;;;5033227;28;20033;-44
2022/04/10 03:00:44;;;;;;;2.03;1.73;;;9.90;33.40;;;;;;5042549;28;20094;-46
2022/04/10 03:03:09;;;;;;;1.77;1.43;;;9.80;33.60;;;;;;5052563;28;20497;-47
2022/04/10 03:05:36;;;;;;;2.90;1.50;;;9.90;33.10;;;;;;5059822;28;20033;-44
2022/04/10 03:08:02;;;;;;;2.23;2.00;;;9.90;33.20;;;;;;5072574;28;20032;-45
2022/04/10 03:10:27;;;;;;;1.83;1.53;;;9.80;33.50;;;;;;5070319;28;20082;-45
2022/04/10 03:12:53;;;;;;;7.07;2.20;;;9.70;34.80;;;;;;5072683;28;20030;-45
2022/04/10 03:15:19;;;;;;;3.67;1.80;;;9.70;34.90;;;;;;5070496;28;20456;-47
2022/04/10 03:17:44;;;;;;;3.07;2.00;;;9.60;35.40;;;;;;5072388;28;20028;-45
2022/04/10 03:20:13;;;;;;;2.47;1.70;;;9.60;35.30;;;;;;5066482;28;20130;-45
2022/04/10 03:22:40;;;;;;;2.23;2.03;;;9.60;35.30;;;;;;5052673;28;20017;-45
2022/04/10 03:25:07;;;;;;;2.63;1.40;;;9.60;35.50;;;;;;5051425;28;20119;-48
2022/04/10 03:27:32;;;;;;;4.27;2.00;;;9.70;35.60;;;;;;5052263;28;20037;-45
2022/04/10 03:29:58;;;;;;;2.63;2.27;;;9.70;35.90;;;;;;5051199;28;20058;-45
2022/04/10 03:32:23;;;;;;;2.33;2.00;;;9.60;35.70;;;;;;5052123;28;20025;-45
2022/04/10 03:34:49;;;;;;;2.60;1.93;;;9.60;36.00;;;;;;5052103;28;20033;-45
2022/04/10 03:37:15;;;;;;;3.40;2.23;;;9.50;36.80;;;;;;5072388;28;20036;-46
2022/04/10 03:39:40;;;;;;;3.40;2.17;;;9.50;36.30;;;;;;5071162;28;20107;-47
2022/04/10 03:42:07;;;;;;;4.33;2.30;;;9.50;36.50;;;;;;5051977;28;20108;-46
2022/04/10 03:44:32;;;;;;;4.27;2.83;;;9.50;37.00;;;;;;5052250;28;20513;-47
2022/04/10 03:46:58;;;;;;;2.50;2.27;;;9.40;37.20;;;;;;5051016;28;20040;-45
2022/04/10 03:49:23;;;;;;;2.90;2.20;;;9.40;36.90;;;;;;5055325;28;20028;-45
2022/04/10 03:51:49;;;;;;;4.90;2.60;;;9.30;37.40;;;;;;5069903;28;20033;-45
2022/04/10 03:54:15;;;;;;;2.87;2.43;;;9.40;36.80;;;;;;5072178;28;20039;-45
2022/04/10 03:56:40;;;;;;;2.80;2.60;;;9.30;37.40;;;;;;5054931;28;20086;-45
2022/04/10 03:59:06;;;;;;;2.60;2.00;;;9.20;37.60;;;;;;5052497;28;20469;-49
2022/04/10 04:01:32;;;;;;;2.77;2.57;;;9.20;37.30;;;;;;5064490;28;20505;-46
2022/04/10 04:03:57;;;;;;;3.90;2.43;;;9.20;37.20;;;;;;5051000;28;20427;-46
2022/04/10 04:06:23;;;;;;;4.33;2.80;;;9.30;37.10;;;;;;5031730;28;20154;-45
2022/04/10 04:09:11;;;;;;;3.23;2.20;;;9.20;37.20;;;;;;5051817;28;20155;-45
2022/04/10 04:11:37;;;;;;;4.37;2.27;;;9.10;38.10;;;;;;5052790;28;20033;-45
2022/04/10 04:14:02;;;;;;;3.00;2.43;;;9.10;37.60;;;;;;5056127;28;20543;-45
2022/04/10 04:16:28;;;;;;;3.13;2.20;;;9.10;37.60;;;;;;5054854;28;20094;-47
2022/04/10 04:18:54;;;;;;;3.40;2.57;;;9.20;37.30;;;;;;5055970;28;20074;-45
2022/04/10 04:21:19;;;;;;;2.77;2.57;;;9.30;37.20;;;;;;5070963;28;20089;-44
2022/04/10 04:23:45;;;;;;;5.17;2.80;;;9.00;37.60;;;;;;5076106;28;20035;-45
2022/04/10 04:26:10;;;;;;;3.53;2.50;;;8.90;38.40;;;;;;5064216;28;20146;-45
2022/04/10 04:28:36;;;;;;;2.80;2.47;;;8.90;38.30;;;;;;5037704;28;20025;-46
2022/04/10 04:31:02;;;;;;;3.13;2.33;;;9.00;37.70;;;;;;5062350;28;20028;-45
2022/04/10 04:33:28;;;;;;;3.70;2.67;;;9.00;37.50;;;;;;5073763;28;20021;-46
2022/04/10 04:35:53;;;;;;;4.37;2.77;;;9.00;37.70;;;;;;5073264;28;20041;-45
2022/04/10 04:38:19;;;;;;;3.97;3.03;;;9.00;38.20;;;;;;5057642;28;20035;-46
2022/04/10 04:40:44;;;;;;;3.00;2.40;;;8.90;38.40;;;;;;5050499;28;20033;-45
2022/04/10 04:43:10;;;;;;;3.00;2.70;;;9.00;37.90;;;;;;5054598;28;20090;-44
2022/04/10 04:45:36;;;;;;;4.17;2.70;;;9.10;37.90;;;;;;5057983;28;20397;-45
2022/04/10 04:48:01;;;;;;;4.17;2.80;;;9.10;37.50;;;;;;5075613;28;20324;-45
2022/04/10 04:50:27;;;;;;;3.13;2.83;;;9.20;37.10;;;;;;5073408;28;20048;-44
2022/04/10 04:52:53;;;;;;;2.93;2.60;;;9.20;37.20;;;;;;5075292;28;20017;-46
2022/04/10 04:55:18;;;;;;;8.13;3.00;;;9.10;37.10;;;;;;5072362;28;20036;-44
2022/04/10 04:57:44;;;;;;;3.47;3.03;;;9.20;37.00;;;;;;5054897;28;20158;-44
2022/04/10 05:00:11;;;;;;;5.33;3.60;;;9.10;37.50;;;;;;5054506;28;20029;-44
2022/04/10 05:02:37;;;;;;;4.03;3.27;;;9.00;38.10;;;;;;5074362;28;20023;-45
2022/04/10 05:05:03;;;;;;;3.97;3.60;;;8.90;38.20;;;;;;5073541;28;20029;-46
2022/04/10 05:07:29;;;;;;;5.27;3.30;;;9.00;38.60;;;;;;5054537;28;20021;-44
2022/04/10 05:09:55;;;;;;;5.33;3.50;;;9.00;38.10;;;;;;5054672;28;20029;-44
2022/04/10 05:12:20;;;;;;;4.40;3.43;;;9.10;37.90;;;;;;5053880;28;20029;-46
2022/04/10 05:14:46;;;;;;;3.80;3.50;;;9.00;37.80;;;;;;5054590;28;20485;-44
2022/04/10 05:17:12;;;;;;;5.27;3.47;;;8.80;38.10;;;;;;5053791;28;20037;-47
2022/04/10 05:19:37;;;;;;;4.47;3.00;;;9.00;37.90;;;;;;5054838;28;20056;-44
2022/04/10 05:22:03;;;;;;;3.60;3.03;;;9.10;37.70;;;;;;5053396;28;20052;-44
2022/04/10 05:24:29;;;;;;;5.80;3.40;;;9.00;37.60;;;;;;5055052;28;20025;-45
2022/04/10 05:26:54;;;;;;;5.93;3.37;;;9.10;37.60;;;;;;5066592;28;20043;-45
2022/04/10 05:29:20;;;;;;;5.37;3.73;;;9.10;37.60;;;;;;5074518;28;20047;-49
2022/04/10 05:31:45;;;;;;;5.90;3.90;;;9.10;37.30;;;;;;5059483;28;20045;-45
2022/04/10 05:34:11;;;;;;;4.53;3.93;;;9.20;37.30;;;;;;5048424;28;20509;-45
2022/04/10 05:36:37;;;;;;;6.97;4.13;;;9.20;37.10;;;;;;5053212;28;20037;-46
2022/04/10 05:39:02;;;;;;;4.07;3.70;;;9.20;37.30;;;;;;5054426;28;20145;-47
2022/04/10 05:41:28;;;;;;;6.17;3.77;;;9.20;37.00;;;;;;5053152;28;20394;-45
2022/04/10 05:43:53;;;;;;;5.43;3.73;;;9.30;37.00;;;;;;5054370;28;20207;-44
2022/04/10 05:46:19;;;;;;;4.13;3.73;;;9.30;37.20;;;;;;5053099;28;20044;-46
2022/04/10 05:48:46;;;;;;;4.30;3.90;;;9.30;37.20;;;;;;5036554;28;20036;-45
2022/04/10 05:51:11;;;;;;;5.57;4.27;;;9.20;37.20;;;;;;5059411;28;20226;-45
2022/04/10 05:53:37;;;;;;;5.70;4.50;;;9.40;37.00;;;;;;5049783;28;20163;-45
2022/04/10 05:56:03;;;;;;;8.13;5.07;;;9.50;36.70;;;;;;5021338;28;20461;-45
2022/04/10 05:58:28;;;;;;;7.57;4.90;;;9.40;36.80;;;;;;5035081;28;20021;-44
2022/04/10 06:00:55;;;;;;;6.57;5.00;;;9.30;37.00;;;;;;5056467;28;20028;-45
2022/04/10 06:03:21;;;;;;;5.57;4.60;;;9.30;38.00;;;;;;5043742;28;20029;-44
2022/04/10 06:05:47;;;;;;;5.70;4.40;;;9.40;37.70;;;;;;5036413;28;20504;-44
2022/04/10 06:08:12;;;;;;;5.70;5.10;;;9.30;38.50;;;;;;5053607;28;20375;-47
2022/04/10 06:10:38;;;;;;;5.80;5.20;;;9.20;38.70;;;;;;5052548;28;20032;-46
2022/04/10 06:13:11;;;;;;;5.70;5.17;;;9.30;38.90;;;;;;5053519;28;20072;-46
2022/04/10 06:15:36;;;;;;;6.57;5.83;;;9.40;38.90;;;;;;5034378;28;20044;-45
2022/04/10 06:18:02;;;;;;;7.47;5.90;;;9.50;38.40;;;;;;5053581;28;20037;-44
2022/04/10 06:20:28;;;;;;;5.97;5.37;;;9.40;38.40;;;;;;5052758;28;20433;-44
2022/04/10 06:22:53;;;;;;;6.67;5.60;;;9.50;38.50;;;;;;5052839;28;20028;-46
2022/04/10 06:25:19;;;;;;;7.33;6.60;;;9.50;38.70;;;;;;5053573;28;20090;-45
2022/04/10 06:27:45;;;;;;;8.10;5.80;;;9.40;39.10;;;;;;5062323;28;20016;-44
2022/04/10 06:30:11;;;;;;;6.80;5.80;;;9.40;39.60;;;;;;5053164;28;20427;-45
2022/04/10 06:32:36;;;;;;;6.27;5.70;;;9.30;40.20;;;;;;5069003;28;20036;-45
2022/04/10 06:35:02;;;;;;;6.90;6.00;;;9.30;39.70;;;;;;5072597;28;20039;-48
2022/04/10 06:37:28;;;;;;;6.73;6.07;;;9.50;39.50;;;;;;5070880;28;20032;-44
2022/04/10 06:39:54;;;;;;;6.97;6.10;;;9.40;39.80;;;;;;5038241;28;20028;-45
2022/04/10 06:42:19;;;;;;;7.00;6.30;;;9.40;40.10;;;;;;5039239;28;20029;-45
2022/04/10 06:44:45;;;;;;;6.87;6.17;;;9.40;39.80;;;;;;5052702;28;20534;-44
2022/04/10 06:47:11;;;;;;;6.63;5.63;;;9.60;39.20;;;;;;5050827;28;20060;-45
2022/04/10 06:49:36;;;;;;;9.07;5.63;;;9.60;39.20;;;;;;5052982;28;20167;-44
2022/04/10 06:52:02;;;;;;;7.27;5.67;;;9.50;39.60;;;;;;5062556;28;20034;-46
2022/04/10 06:54:28;;;;;;;6.67;5.97;;;9.70;39.60;;;;;;5054946;28;20032;-46
2022/04/10 06:56:54;;;;;;;6.73;6.13;;;9.50;40.30;;;;;;5060964;28;20084;-48
2022/04/10 06:59:19;;;;;;;7.93;5.80;;;9.70;39.60;;;;;;5052617;28;20025;-47
2022/04/10 07:01:45;;;;;;;8.83;6.37;;;9.60;40.00;;;;;;5059358;28;20024;-48
2022/04/10 07:04:10;;;;;;;7.07;6.37;;;9.60;40.30;;;;;;5072393;28;20020;-48
2022/04/10 07:06:36;;;;;;;6.90;6.20;;;9.60;40.10;;;;;;5064355;28;20028;-46
2022/04/10 07:09:02;;;;;;;6.83;6.13;;;9.50;41.20;;;;;;5050612;28;20032;-47
2022/04/10 07:11:28;;;;;;;6.87;6.17;;;9.70;41.00;;;;;;5048918;28;20028;-45
2022/04/10 07:13:53;;;;;;;7.50;6.80;;;9.60;40.50;;;;;;5072659;28;20028;-45
2022/04/10 07:16:19;;;;;;;6.63;6.00;;;9.60;40.60;;;;;;5063892;28;20035;-45
2022/04/10 07:18:45;;;;;;;7.30;6.53;;;9.50;40.80;;;;;;5052736;28;20033;-45
2022/04/10 07:21:10;;;;;;;7.73;6.83;;;9.60;40.40;;;;;;5056493;28;20029;-45
2022/04/10 07:23:41;;;;;;;7.60;6.40;;;9.70;39.70;;;;;;5072253;28;20020;-45
2022/04/10 07:26:08;;;;;;;8.00;6.50;;;9.70;40.00;;;;;;5046557;28;20120;-45
2022/04/10 07:28:34;;;;;;;8.03;6.23;;;9.80;39.70;;;;;;5052611;28;20444;-45
2022/04/10 07:31:00;;;;;;;6.67;5.97;;;9.90;39.00;;;;;;5051083;28;20059;-45
2022/04/10 07:33:26;;;;;;;10.27;6.07;;;10.10;38.40;;;;;;5052024;28;20112;-45
2022/04/10 07:35:52;;;;;;;6.70;6.10;;;10.10;38.30;;;;;;5052642;28;20200;-45
2022/04/10 07:38:17;;;;;;;6.97;6.33;;;10.10;38.10;;;;;;5072229;28;20028;-47
2022/04/10 07:40:43;;;;;;;7.40;6.70;;;10.20;37.60;;;;;;5069548;28;20047;-45
2022/04/10 07:43:09;;;;;;;7.23;6.43;;;10.20;36.90;;;;;;5050974;28;20082;-48
2022/04/10 07:48:19;;;;;;;6.50;5.90;;;10.30;36.60;;;;;;4998325;28;20525;-45
2022/04/10 07:50:45;;;;;;;6.53;5.93;;;10.30;36.90;;;;;;5029805;28;20268;-47
2022/04/10 07:53:11;;;;;;;6.20;5.60;;;10.40;36.40;;;;;;5029477;28;20065;-45
2022/04/10 07:55:37;;;;;;;6.43;5.40;;;10.40;35.00;;;;;;5019086;28;20484;-46
2022/04/10 07:58:02;;;;;;;6.07;5.50;;;10.40;34.80;;;;;;5012956;28;20459;-46
2022/04/10 08:00:32;;;;;;;6.70;5.60;;;10.50;35.00;;;;;;4998939;28;20599;-39
2022/04/10 08:02:58;;;;;;;5.40;4.90;;;10.60;34.40;;;;;;4998573;28;20561;-47
2022/04/10 08:05:24;;;;;;;5.50;5.00;;;10.60;32.90;;;;;;5000357;28;20107;-46
2022/04/10 08:07:50;;;;;;;6.60;5.90;;;10.50;32.80;;;;;;5024710;28;20106;-46
2022/04/10 08:10:16;;;;;;;8.07;6.23;;;10.70;33.20;;;;;;4996622;28;20030;-48
2022/04/10 08:12:43;;;;;;;6.53;5.93;;;10.80;32.60;;;;;;5023702;28;20443;-46
2022/04/10 08:15:10;;;;;;;6.13;5.50;;;10.80;32.60;;;;;;5031966;28;20033;-45
2022/04/10 08:17:36;;;;;;;7.37;6.47;;;10.90;32.50;;;;;;5029589;28;20076;-45
2022/04/10 08:20:04;;;;;;;6.50;5.90;;;11.00;31.70;;;;;;5030112;28;20049;-45
2022/04/10 08:22:31;;;;;;;6.63;5.73;;;11.00;31.70;;;;;;5016151;28;20026;-44
2022/04/10 08:25:04;;;;;;;7.57;5.50;;;11.10;31.20;;;;;;5011766;28;20022;-45
2022/04/10 08:27:31;;;;;;;7.03;5.60;;;11.20;30.50;;;;;;5011193;28;20034;-45
2022/04/10 08:29:57;;;;;;;6.97;6.27;;;11.20;30.00;;;;;;5011912;28;20535;-45
2022/04/10 08:32:23;;;;;;;7.07;6.00;;;11.20;29.00;;;;;;5011152;28;20030;-45
2022/04/10 08:34:49;;;;;;;7.53;6.10;;;11.20;29.10;;;;;;5011907;28;20102;-45
2022/04/10 08:37:14;;;;;;;7.30;5.97;;;11.30;28.50;;;;;;5021751;28;20044;-45
2022/04/10 08:39:40;;;;;;;6.93;6.23;;;11.30;28.10;;;;;;5031560;28;20530;-45
2022/04/10 08:42:08;;;;;;;9.80;5.13;;;11.40;28.30;;;;;;5029416;28;20112;-45
2022/04/10 08:44:34;;;;;;;6.03;5.50;;;;;;;;;;5031740;28;20036;-45
2022/04/10 08:47:00;;;;;;;6.23;5.63;;;11.50;27.30;;;;;;5038913;28;20041;-45
2022/04/10 08:49:34;;;;;;;8.03;5.93;;;11.60;27.70;;;;;;5071328;28;20035;-45
2022/04/10 08:52:00;;;;;;;5.67;5.17;;;;;;;;;;5069310;28;20071;-45
2022/04/10 08:54:27;;;;;;;6.40;4.40;;;11.80;25.20;;;;;;5071321;28;20078;-46
2022/04/10 08:56:54;;;;;;;5.07;4.43;;;11.90;22.40;;;;;;5062367;28;20043;-45
2022/04/10 08:59:20;;;;;;;3.60;3.30;;;12.00;21.80;;;;;;5037011;28;20017;-46
2022/04/10 09:01:52;;;;;;;5.30;3.55;;;11.90;20.80;;;;;;5059070;28;20056;-46
2022/04/10 09:04:20;;;;;;;6.15;3.67;;;12.10;19.20;;;;;;5074888;28;20425;-46
2022/04/10 09:07:07;;;;;;;4.05;3.65;;;12.00;19.60;;;;;;5066113;28;20033;-45
2022/04/10 09:09:34;;;;;;;4.28;3.88;;;12.20;18.30;;;;;;5036761;28;20036;-45
2022/04/10 09:12:00;;;;;;;5.03;3.30;;;12.30;18.00;;;;;;5053029;28;20036;-45
2022/04/10 09:14:28;;;;;;;3.55;3.00;;;12.40;16.50;;;;;;5053819;28;20028;-45
2022/04/10 09:17:11;;;;;;;4.20;3.15;;;12.30;16.50;;;;;;5053678;28;20032;-46
2022/04/10 09:19:40;;;;;;;3.60;3.30;;;12.40;13.90;;;;;;5054867;28;20037;-46
2022/04/10 09:22:26;;;;;;;5.25;3.47;;;12.60;15.70;;;;;;5062494;28;20241;-46
2022/04/10 09:25:04;;;;;;;3.97;3.08;;;12.60;13.80;;;;;;5041551;28;20434;-45
2022/04/10 09:27:38;;;;;;;4.72;3.75;;;12.70;14.40;;;;;;5058643;28;20059;-46
2022/04/10 09:30:06;;;;;;;4.00;3.55;;;12.80;14.70;;;;;;5074807;28;20439;-45
2022/04/10 09:32:42;;;;;;;8.68;3.72;;;12.90;15.50;;;;;;5072567;28;20024;-45
2022/04/10 09:35:09;;;;;;;5.28;4.35;;;13.00;16.00;;;;;;5074330;28;20016;-45
2022/04/10 09:37:43;;;;;;;5.80;4.43;;;13.10;16.10;;;;;;5059585;28;20108;-47
2022/04/10 09:40:27;;;;;;;4.03;3.63;;;13.20;14.90;;;;;;5043155;28;20083;-45
2022/04/10 09:42:58;;;;;;;4.22;3.63;;;13.30;14.50;;;;;;5064034;28;20033;-49
2022/04/10 09:45:28;;;;;;;4.18;3.40;;;13.30;14.90;;;;;;5056130;28;20017;-46
2022/04/10 09:47:54;;;;;;;4.00;3.40;;;13.40;12.30;;;;;;5053094;28;20049;-47
2022/04/10 09:50:30;;;;;;;7.45;4.25;;;13.50;13.30;;;;;;5053953;28;20029;-45
2022/04/10 09:52:56;;;;;;;4.72;3.63;;;13.50;12.40;;;;;;5035323;28;20106;-45
2022/04/10 09:55:42;;;;;;;3.70;3.08;;;13.60;13.20;;;;;;5053908;28;20048;-45
2022/04/10 09:58:10;;;;;;;4.50;3.25;;;;;;;;;;5052984;28;20025;-47
2022/04/10 10:00:42;;;;;;;4.70;3.35;;;13.60;11.50;;;;;;5050926;28;20029;-49
2022/04/10 10:03:09;;;;;;;3.55;2.70;;;13.80;11.00;;;;;;5053217;28;20330;-47
2022/04/10 10:05:35;;;;;;;2.70;2.50;;;13.90;11.00;;;;;;5053061;28;20430;-46
2022/04/10 10:08:02;;;;;;;5.38;3.00;;;13.90;11.10;;;;;;5048336;28;20049;-47
2022/04/10 10:10:32;;;;;;;4.00;2.83;;;;;;;;;;5053243;28;20324;-47
2022/04/10 10:13:01;;;;;;;1.60;1.50;;;14.10;9.40;;;;;;5047554;28;20101;-45
2022/04/10 10:15:27;;;;;;;1.67;1.13;;;14.10;6.60;;;;;;5073626;28;20375;-46
2022/04/10 10:17:54;;;;;;;2.08;1.35;;;14.10;6.30;;;;;;5071322;28;20493;-45
2022/04/10 10:20:21;;;;;;;2.75;1.20;;;14.00;4.70;;;;;;5073392;28;20103;-44
2022/04/10 10:22:47;;;;;;;0.95;0.80;;;14.20;3.80;;;;;;5053483;28;20390;-45
2022/04/10 10:25:20;;;;;;;2.15;0.98;;;14.30;2.20;;;;;;5073673;28;20025;-45
2022/04/10 10:27:45;;;;;;;1.92;1.02;;;14.40;1.10;;;;;;5069429;28;20521;-47
2022/04/10 10:30:39;;;;;;;3.28;1.35;;;14.50;1.80;;;;;;5055252;28;20109;-45
2022/04/10 10:33:18;;;;;;;1.83;1.23;;;14.60;1.10;;;;;;5056007;28;20021;-46
2022/04/10 10:35:48;;;;;;;0.90;0.90;;;14.50;1.20;;;;;;5072696;28;20455;-46
2022/04/10 10:38:27;;;;;;;1.38;1.00;;;14.60;3.50;;;;;;5056630;28;20421;-45
2022/04/10 10:41:11;;;;;;;1.58;1.45;;;14.60;1.50;;;;;;5054803;28;20036;-46
2022/04/10 10:43:37;;;;;;;1.05;0.98;;;14.70;1.80;;;;;;5052958;28;20506;-45
2022/04/10 10:46:18;;;;;;;1.88;1.40;;;14.70;2.60;;;;;;5059064;28;20112;-46
2022/04/10 10:48:43;;;;;;;2.35;1.40;;;14.70;3.30;;;;;;5052316;28;20094;-46
2022/04/10 10:51:09;;;;;;;3.53;1.02;;;14.80;3.20;;;;;;5052796;28;20025;-45
2022/04/10 10:53:47;;;;;;;1.48;1.20;;;15.00;2.70;;;;;;5069122;28;20056;-45
2022/04/10 10:56:31;;;;;;;0.98;0.88;;;15.00;1.00;;;;;;5072783;28;20163;-45
2022/04/10 10:59:25;;;;;;;1.30;0.77;;;15.20;1.00;;;;;;5032917;28;20036;-45
2022/04/10 11:02:02;;;;;;;0.77;0.65;;;15.20;1.00;;;;;;5038365;28;20386;-47
2022/04/10 11:04:32;;;;;;;0.93;0.85;;;15.20;1.00;;;;;;5053698;28;20040;-45
2022/04/10 11:07:13;;;;;;;0.77;0.70;;;15.40;1.00;;;;;;5067649;28;20082;-46
2022/04/10 11:09:59;;;;;;;1.08;0.60;;;15.50;1.00;;;;;;5052887;28;20037;-44
2022/04/10 11:12:47;;;;;;;1.27;0.98;;;15.80;1.00;;;;;;5057931;28;20466;-45
2022/04/10 11:15:23;;;;;;;2.40;0.90;;;15.70;1.00;;;;;;5072565;28;20386;-45
2022/04/10 11:17:51;;;;;;;0.95;0.80;;;15.70;1.00;;;;;;5060799;28;20040;-44
2022/04/10 11:20:20;;;;;;;0.98;0.68;;;15.70;1.00;;;;;;5033483;28;20029;-44
2022/04/10 11:22:52;;;;;;;3.70;0.90;;;16.00;1.00;;;;;;5059973;28;20158;-44
2022/04/10 11:25:28;;;;;;;1.73;0.63;;;16.10;1.00;;;;;;5072509;28;20028;-46
2022/04/10 11:28:03;;;;;;;0.65;0.60;;;15.90;1.00;;;;;;5069463;28;20028;-45
2022/04/10 11:30:36;;;;;;;3.00;1.20;;;16.10;1.00;;;;;;5070859;28;20027;-45
2022/04/10 11:33:04;;;;;;;1.00;0.80;;;16.20;1.00;;;;;;5070051;28;20028;-44
2022/04/10 11:35:41;;;;;;;1.58;1.00;;;16.20;1.00;;;;;;5072116;28;20024;-45
2022/04/10 11:38:13;;;;;;;1.90;0.88;;;16.20;1.00;;;;;;5058683;28;20486;-44
2022/04/10 11:40:41;;;;;;;2.15;0.80;;;16.60;1.00;;;;;;5033936;28;20025;-48
2022/04/10 11:43:08;;;;;;;0.85;0.73;;;16.80;1.00;;;;;;5044449;28;20080;-45
2022/04/10 11:45:35;;;;;;;2.33;0.82;;;16.80;1.00;;;;;;5072061;28;20020;-45
2022/04/10 11:48:04;;;;;;;0.70;0.70;;;16.70;1.00;;;;;;5041573;28;20429;-45
2022/04/10 11:50:30;;;;;;;1.45;0.93;;;16.80;1.00;;;;;;5051207;28;20040;-46
2022/04/10 11:52:56;;;;;;;1.10;0.95;;;17.00;1.00;;;;;;5042381;28;20406;-46
2022/04/10 11:55:32;;;;;;;0.80;0.77;;;17.10;1.00;;;;;;5071892;28;20107;-45
2022/04/10 11:57:57;;;;;;;1.30;0.65;;;17.30;1.00;;;;;;5069736;28;20032;-45
2022/04/10 12:00:23;;;;;;;6.18;0.98;;;17.50;1.00;;;;;;5056540;28;20029;-46
2022/04/10 12:02:52;;;;;;;2.17;0.70;;;17.50;1.00;;;;;;5058929;28;20036;-47
2022/04/10 12:05:26;;;;;;;0.70;0.63;;;17.70;1.00;;;;;;5071829;28;20021;-49
2022/04/10 12:07:59;;;;;;;1.25;0.70;;;17.80;1.00;;;;;;5061436;28;20029;-45
2022/04/10 12:10:24;;;;;;;0.70;0.70;;;17.90;1.00;;;;;;5051615;28;20501;-45
2022/04/10 12:12:52;;;;;;;0.70;0.50;;;18.10;1.00;;;;;;5058827;28;20029;-47
2022/04/10 12:15:19;;;;;;;1.08;0.68;;;23.30;1.00;;;;;;5071710;28;20496;-46
2022/04/10 12:17:46;;;;;;;1.00;0.80;;;24.60;1.00;;;;;;5062684;28;20029;-49
2022/04/10 12:20:12;;;;;;;1.00;0.68;;;23.10;1.00;;;;;;5051716;28;20371;-49
2022/04/10 12:22:38;;;;;;;0.68;0.68;;;24.70;1.00;;;;;;5050970;28;20029;-47
2022/04/10 12:25:05;;;;;;;1.00;0.77;;;27.50;1.00;;;;;;5051872;28;20037;-44
2022/04/10 12:27:31;;;;;;;0.70;0.70;;;27.50;1.00;;;;;;5060939;28;20032;-48
2022/04/10 12:29:57;;;;;;;0.80;0.80;;;26.60;1.00;;;;;;5071725;28;20086;-46
2022/04/10 12:32:24;;;;;;;0.70;0.70;;;26.10;1.00;;;;;;5067363;28;20029;-47
2022/04/10 12:34:53;;;;;;;0.93;0.93;;;24.60;1.00;;;;;;5055514;28;20068;-48
2022/04/10 12:37:19;;;;;;;1.00;0.63;;;23.80;1.00;;;;;;5057397;28;20043;-47
2022/04/10 12:39:48;;;;;;;1.40;0.75;;;23.30;1.00;;;;;;5065555;28;20025;-46
2022/04/10 12:42:20;;;;;;;1.42;1.20;;;23.40;1.00;;;;;;5054505;28;20068;-46
2022/04/10 12:44:55;;;;;;;1.90;1.30;;;24.40;1.00;;;;;;5054781;28;20029;-46
2022/04/10 12:47:42;;;;;;;1.23;0.90;;;26.30;1.00;;;;;;5060348;28;20355;-48
2022/04/10 12:50:10;;;;;;;1.88;1.00;;;26.20;1.00;;;;;;5075221;28;20024;-49
2022/04/10 12:52:40;;;;;;;2.28;1.25;;;25.10;1.00;;;;;;5062678;28;20028;-46
2022/04/10 12:55:20;;;;;;;1.00;1.00;;;25.90;1.00;;;;;;5073122;28;20452;-46
2022/04/10 12:57:57;;;;;;;1.48;0.93;;;28.90;1.00;;;;;;5053297;28;20036;-45
2022/04/10 13:00:36;;;;;;;1.60;1.10;;;33.60;1.00;;;;;;5055300;28;20078;-45
2022/04/10 13:03:24;;;;;;;2.60;1.67;;;35.90;1.00;;;;;;5044605;28;20055;-47